sensor_id;sensor_type;location;lat;lon;timestamp;temperature;humidity
73121;DHT22;61307;49.628;-1.624;2023-06-14T00:00:43;22.50;55.60
73121;DHT22;61307;49.628;-1.624;2023-06-14T00:03:11;22.50;55.60
73121;DHT22;61307;49.628;-1.624;2023-06-14T00:05:43;22.50;55.60
73121;DHT22;61307;49.628;-1.624;2023-06-14T00:08:13;22.50;55.60
73121;DHT22;61307;49.628;-1.624;2023-06-14T00:10:40;22.50;55.60
73121;DHT22;61307;49.628;-1.624;2023-06-14T00:13:07;22.40;55.50
73121;DHT22;61307;49.628;-1.624;2023-06-14T00:15:36;22.40;55.50
73121;DHT22;61307;49.628;-1.624;2023-06-14T00:18:03;22.40;55.50
73121;DHT22;61307;49.628;-1.624;2023-06-14T00:20:32;22.40;55.60
73121;DHT22;61307;49.628;-1.624;2023-06-14T00:22:59;22.40;55.60
73121;DHT22;61307;49.628;-1.624;2023-06-14T00:25:26;22.40;55.60
73121;DHT22;61307;49.628;-1.624;2023-06-14T00:27:54;22.40;55.60
73121;DHT22;61307;49.628;-1.624;2023-06-14T00:30:21;22.40;55.60
73121;DHT22;61307;49.628;-1.624;2023-06-14T00:32:49;22.40;55.60
73121;DHT22;61307;49.628;-1.624;2023-06-14T00:35:17;22.40;55.60
73121;DHT22;61307;49.628;-1.624;2023-06-14T00:37:43;22.40;55.60
73121;DHT22;61307;49.628;-1.624;2023-06-14T00:40:10;22.40;55.60
73121;DHT22;61307;49.628;-1.624;2023-06-14T00:42:37;22.40;55.60
73121;DHT22;61307;49.628;-1.624;2023-06-14T00:45:05;22.40;55.60
73121;DHT22;61307;49.628;-1.624;2023-06-14T00:47:32;22.40;55.60
73121;DHT22;61307;49.628;-1.624;2023-06-14T00:50:00;22.30;55.50
73121;DHT22;61307;49.628;-1.624;2023-06-14T00:52:28;22.30;55.50
73121;DHT22;61307;49.628;-1.624;2023-06-14T00:54:55;22.30;55.60
73121;DHT22;61307;49.628;-1.624;2023-06-14T00:57:21;22.30;55.60
73121;DHT22;61307;49.628;-1.624;2023-06-14T00:59:49;22.30;55.60
73121;DHT22;61307;49.628;-1.624;2023-06-14T01:02:17;22.30;55.60
73121;DHT22;61307;49.628;-1.624;2023-06-14T01:04:46;22.30;55.60
73121;DHT22;61307;49.628;-1.624;2023-06-14T01:07:23;22.30;55.60
73121;DHT22;61307;49.628;-1.624;2023-06-14T01:10:03;22.30;55.60
73121;DHT22;61307;49.628;-1.624;2023-06-14T01:12:37;22.30;55.60
73121;DHT22;61307;49.628;-1.624;2023-06-14T01:15:05;22.30;55.60
73121;DHT22;61307;49.628;-1.624;2023-06-14T01:17:33;22.20;55.50
73121;DHT22;61307;49.628;-1.624;2023-06-14T01:20:01;22.30;55.60
73121;DHT22;61307;49.628;-1.624;2023-06-14T01:22:30;22.30;55.60
73121;DHT22;61307;49.628;-1.624;2023-06-14T01:24:59;22.20;55.50
73121;DHT22;61307;49.628;-1.624;2023-06-14T01:27:26;22.20;55.50
73121;DHT22;61307;49.628;-1.624;2023-06-14T01:29:55;22.20;56.20
73121;DHT22;61307;49.628;-1.624;2023-06-14T01:32:23;22.20;55.50
73121;DHT22;61307;49.628;-1.624;2023-06-14T01:34:51;22.20;55.60
73121;DHT22;61307;49.628;-1.624;2023-06-14T01:37:19;22.20;55.50
73121;DHT22;61307;49.628;-1.624;2023-06-14T01:39:47;22.20;55.60
73121;DHT22;61307;49.628;-1.624;2023-06-14T01:42:18;22.20;55.50
73121;DHT22;61307;49.628;-1.624;2023-06-14T01:44:46;22.20;55.50
73121;DHT22;61307;49.628;-1.624;2023-06-14T01:47:14;22.10;55.50
73121;DHT22;61307;49.628;-1.624;2023-06-14T01:49:41;22.20;55.60
73121;DHT22;61307;49.628;-1.624;2023-06-14T01:52:08;22.20;55.50
73121;DHT22;61307;49.628;-1.624;2023-06-14T01:54:35;22.20;55.50
73121;DHT22;61307;49.628;-1.624;2023-06-14T01:57:07;22.20;55.50
73121;DHT22;61307;49.628;-1.624;2023-06-14T01:59:37;22.20;55.60
73121;DHT22;61307;49.628;-1.624;2023-06-14T02:02:04;22.20;55.50
73121;DHT22;61307;49.628;-1.624;2023-06-14T02:04:31;22.10;55.50
73121;DHT22;61307;49.628;-1.624;2023-06-14T02:06:58;22.10;55.50
73121;DHT22;61307;49.628;-1.624;2023-06-14T02:09:25;22.10;55.50
73121;DHT22;61307;49.628;-1.624;2023-06-14T02:11:51;22.10;55.50
73121;DHT22;61307;49.628;-1.624;2023-06-14T02:14:18;22.10;55.50
73121;DHT22;61307;49.628;-1.624;2023-06-14T02:16:47;22.10;55.50
73121;DHT22;61307;49.628;-1.624;2023-06-14T02:19:15;22.10;55.50
73121;DHT22;61307;49.628;-1.624;2023-06-14T02:21:43;22.10;55.50
73121;DHT22;61307;49.628;-1.624;2023-06-14T02:24:10;22.10;55.50
73121;DHT22;61307;49.628;-1.624;2023-06-14T02:26:37;22.10;55.50
73121;DHT22;61307;49.628;-1.624;2023-06-14T02:29:04;22.10;55.50
73121;DHT22;61307;49.628;-1.624;2023-06-14T02:31:35;22.10;55.50
73121;DHT22;61307;49.628;-1.624;2023-06-14T02:34:03;22.10;55.50
73121;DHT22;61307;49.628;-1.624;2023-06-14T02:36:30;22.00;55.50
73121;DHT22;61307;49.628;-1.624;2023-06-14T02:38:57;22.00;55.50
73121;DHT22;61307;49.628;-1.624;2023-06-14T02:41:24;22.00;55.40
73121;DHT22;61307;49.628;-1.624;2023-06-14T02:43:52;22.00;55.50
73121;DHT22;61307;49.628;-1.624;2023-06-14T02:46:19;22.00;55.50
73121;DHT22;61307;49.628;-1.624;2023-06-14T02:48:46;22.00;55.40
73121;DHT22;61307;49.628;-1.624;2023-06-14T02:51:15;22.00;55.50
73121;DHT22;61307;49.628;-1.624;2023-06-14T02:53:41;22.00;55.50
73121;DHT22;61307;49.628;-1.624;2023-06-14T02:56:09;22.00;55.50
73121;DHT22;61307;49.628;-1.624;2023-06-14T02:58:37;22.00;55.50
73121;DHT22;61307;49.628;-1.624;2023-06-14T03:01:05;22.00;55.50
73121;DHT22;61307;49.628;-1.624;2023-06-14T03:03:33;22.00;55.50
73121;DHT22;61307;49.628;-1.624;2023-06-14T03:06:00;22.00;55.50
73121;DHT22;61307;49.628;-1.624;2023-06-14T03:08:32;22.00;55.50
73121;DHT22;61307;49.628;-1.624;2023-06-14T03:11:04;22.00;55.50
73121;DHT22;61307;49.628;-1.624;2023-06-14T03:13:31;22.00;55.50
73121;DHT22;61307;49.628;-1.624;2023-06-14T03:15:59;22.00;56.10
73121;DHT22;61307;49.628;-1.624;2023-06-14T03:18:29;22.00;55.50
73121;DHT22;61307;49.628;-1.624;2023-06-14T03:20:56;21.90;55.40
73121;DHT22;61307;49.628;-1.624;2023-06-14T03:23:23;21.90;55.40
73121;DHT22;61307;49.628;-1.624;2023-06-14T03:25:52;21.90;55.40
73121;DHT22;61307;49.628;-1.624;2023-06-14T03:28:19;21.90;55.40
73121;DHT22;61307;49.628;-1.624;2023-06-14T03:30:46;21.90;55.40
73121;DHT22;61307;49.628;-1.624;2023-06-14T03:33:13;21.90;55.40
73121;DHT22;61307;49.628;-1.624;2023-06-14T03:35:41;21.90;55.40
73121;DHT22;61307;49.628;-1.624;2023-06-14T03:38:08;21.90;55.40
73121;DHT22;61307;49.628;-1.624;2023-06-14T03:40:35;21.90;55.40
73121;DHT22;61307;49.628;-1.624;2023-06-14T03:43:03;21.90;55.40
73121;DHT22;61307;49.628;-1.624;2023-06-14T03:45:30;21.90;55.40
73121;DHT22;61307;49.628;-1.624;2023-06-14T03:47:57;21.90;55.40
73121;DHT22;61307;49.628;-1.624;2023-06-14T03:50:26;21.90;55.40
73121;DHT22;61307;49.628;-1.624;2023-06-14T03:52:53;21.90;55.40
73121;DHT22;61307;49.628;-1.624;2023-06-14T03:55:20;21.90;55.40
73121;DHT22;61307;49.628;-1.624;2023-06-14T03:57:50;21.90;55.40
73121;DHT22;61307;49.628;-1.624;2023-06-14T04:00:19;21.90;55.40
73121;DHT22;61307;49.628;-1.624;2023-06-14T04:02:46;21.90;55.40
73121;DHT22;61307;49.628;-1.624;2023-06-14T04:05:14;21.90;55.40
73121;DHT22;61307;49.628;-1.624;2023-06-14T04:07:42;21.90;55.40
73121;DHT22;61307;49.628;-1.624;2023-06-14T04:10:11;21.90;55.40
73121;DHT22;61307;49.628;-1.624;2023-06-14T04:12:38;21.80;55.30
73121;DHT22;61307;49.628;-1.624;2023-06-14T04:15:06;21.80;55.30
73121;DHT22;61307;49.628;-1.624;2023-06-14T04:17:36;21.80;55.30
73121;DHT22;61307;49.628;-1.624;2023-06-14T04:20:04;21.80;55.30
73121;DHT22;61307;49.628;-1.624;2023-06-14T04:22:35;21.90;55.40
73121;DHT22;61307;49.628;-1.624;2023-06-14T04:25:02;21.80;55.30
73121;DHT22;61307;49.628;-1.624;2023-06-14T04:27:31;21.80;55.30
73121;DHT22;61307;49.628;-1.624;2023-06-14T04:30:01;21.80;55.40
73121;DHT22;61307;49.628;-1.624;2023-06-14T04:32:29;21.80;55.30
73121;DHT22;61307;49.628;-1.624;2023-06-14T04:35:00;21.80;55.30
73121;DHT22;61307;49.628;-1.624;2023-06-14T04:37:29;21.80;55.30
73121;DHT22;61307;49.628;-1.624;2023-06-14T04:39:56;21.80;55.30
73121;DHT22;61307;49.628;-1.624;2023-06-14T04:42:23;21.80;55.30
73121;DHT22;61307;49.628;-1.624;2023-06-14T04:44:56;21.80;55.30
73121;DHT22;61307;49.628;-1.624;2023-06-14T04:47:24;21.80;55.30
73121;DHT22;61307;49.628;-1.624;2023-06-14T04:49:56;21.80;55.30
73121;DHT22;61307;49.628;-1.624;2023-06-14T04:52:25;21.80;55.30
73121;DHT22;61307;49.628;-1.624;2023-06-14T04:54:52;21.80;55.30
73121;DHT22;61307;49.628;-1.624;2023-06-14T04:57:20;21.80;55.30
73121;DHT22;61307;49.628;-1.624;2023-06-14T04:59:48;21.70;55.20
73121;DHT22;61307;49.628;-1.624;2023-06-14T05:02:21;21.80;55.40
73121;DHT22;61307;49.628;-1.624;2023-06-14T05:04:49;21.80;55.30
73121;DHT22;61307;49.628;-1.624;2023-06-14T05:07:16;21.80;55.30
73121;DHT22;61307;49.628;-1.624;2023-06-14T05:09:45;21.80;55.30
73121;DHT22;61307;49.628;-1.624;2023-06-14T05:12:12;21.80;55.40
73121;DHT22;61307;49.628;-1.624;2023-06-14T05:14:39;21.70;55.30
73121;DHT22;61307;49.628;-1.624;2023-06-14T05:17:06;21.80;55.40
73121;DHT22;61307;49.628;-1.624;2023-06-14T05:19:33;21.80;55.30
73121;DHT22;61307;49.628;-1.624;2023-06-14T05:22:00;21.70;55.20
73121;DHT22;61307;49.628;-1.624;2023-06-14T05:24:28;21.80;55.40
73121;DHT22;61307;49.628;-1.624;2023-06-14T05:26:58;21.80;55.30
73121;DHT22;61307;49.628;-1.624;2023-06-14T05:29:25;21.70;55.30
73121;DHT22;61307;49.628;-1.624;2023-06-14T05:31:53;21.80;55.30
73121;DHT22;61307;49.628;-1.624;2023-06-14T05:34:20;21.80;55.30
73121;DHT22;61307;49.628;-1.624;2023-06-14T05:36:47;21.70;55.20
73121;DHT22;61307;49.628;-1.624;2023-06-14T05:39:14;21.70;55.20
73121;DHT22;61307;49.628;-1.624;2023-06-14T05:41:41;21.70;55.20
73121;DHT22;61307;49.628;-1.624;2023-06-14T05:44:09;21.80;55.20
73121;DHT22;61307;49.628;-1.624;2023-06-14T05:46:36;21.80;55.20
73121;DHT22;61307;49.628;-1.624;2023-06-14T05:49:05;21.80;55.20
73121;DHT22;61307;49.628;-1.624;2023-06-14T05:51:32;21.80;55.20
73121;DHT22;61307;49.628;-1.624;2023-06-14T05:53:59;21.80;55.20
73121;DHT22;61307;49.628;-1.624;2023-06-14T05:56:26;21.70;55.10
73121;DHT22;61307;49.628;-1.624;2023-06-14T05:58:53;21.80;55.10
73121;DHT22;61307;49.628;-1.624;2023-06-14T06:01:23;21.80;55.00
73121;DHT22;61307;49.628;-1.624;2023-06-14T06:03:50;21.70;55.00
73121;DHT22;61307;49.628;-1.624;2023-06-14T06:06:17;21.80;55.00
73121;DHT22;61307;49.628;-1.624;2023-06-14T06:08:44;21.80;55.00
73121;DHT22;61307;49.628;-1.624;2023-06-14T06:11:12;21.80;55.00
73121;DHT22;61307;49.628;-1.624;2023-06-14T06:13:39;21.90;55.00
73121;DHT22;61307;49.628;-1.624;2023-06-14T06:16:06;21.90;55.00
73121;DHT22;61307;49.628;-1.624;2023-06-14T06:18:34;22.00;55.00
73121;DHT22;61307;49.628;-1.624;2023-06-14T06:21:03;22.00;54.90
73121;DHT22;61307;49.628;-1.624;2023-06-14T06:23:30;22.10;54.90
73121;DHT22;61307;49.628;-1.624;2023-06-14T06:25:57;22.20;54.90
73121;DHT22;61307;49.628;-1.624;2023-06-14T06:28:24;22.20;54.70
73121;DHT22;61307;49.628;-1.624;2023-06-14T06:30:51;22.20;54.60
73121;DHT22;61307;49.628;-1.624;2023-06-14T06:33:19;22.30;54.60
73121;DHT22;61307;49.628;-1.624;2023-06-14T06:35:47;22.30;54.40
73121;DHT22;61307;49.628;-1.624;2023-06-14T06:38:14;22.40;54.40
73121;DHT22;61307;49.628;-1.624;2023-06-14T06:40:44;22.40;54.30
73121;DHT22;61307;49.628;-1.624;2023-06-14T06:43:11;22.50;54.40
73121;DHT22;61307;49.628;-1.624;2023-06-14T06:45:39;22.50;54.40
73121;DHT22;61307;49.628;-1.624;2023-06-14T06:48:06;22.50;54.10
73121;DHT22;61307;49.628;-1.624;2023-06-14T06:50:33;22.50;54.00
73121;DHT22;61307;49.628;-1.624;2023-06-14T06:53:02;22.60;54.00
73121;DHT22;61307;49.628;-1.624;2023-06-14T06:55:29;22.60;53.90
73121;DHT22;61307;49.628;-1.624;2023-06-14T06:57:56;22.70;53.90
73121;DHT22;61307;49.628;-1.624;2023-06-14T07:00:23;22.70;54.00
73121;DHT22;61307;49.628;-1.624;2023-06-14T07:02:51;22.70;53.80
73121;DHT22;61307;49.628;-1.624;2023-06-14T07:05:20;22.70;53.70
73121;DHT22;61307;49.628;-1.624;2023-06-14T07:07:47;22.70;53.50
73121;DHT22;61307;49.628;-1.624;2023-06-14T07:10:16;22.80;53.80
73121;DHT22;61307;49.628;-1.624;2023-06-14T07:12:44;22.80;53.90
73121;DHT22;61307;49.628;-1.624;2023-06-14T07:15:11;22.80;53.90
73121;DHT22;61307;49.628;-1.624;2023-06-14T07:17:38;22.90;53.90
73121;DHT22;61307;49.628;-1.624;2023-06-14T07:20:07;22.90;53.90
73121;DHT22;61307;49.628;-1.624;2023-06-14T07:22:40;22.90;53.90
73121;DHT22;61307;49.628;-1.624;2023-06-14T07:25:21;22.90;53.80
73121;DHT22;61307;49.628;-1.624;2023-06-14T07:27:52;23.00;53.80
73121;DHT22;61307;49.628;-1.624;2023-06-14T07:30:24;23.00;53.50
73121;DHT22;61307;49.628;-1.624;2023-06-14T07:32:57;23.00;53.50
73121;DHT22;61307;49.628;-1.624;2023-06-14T07:35:24;23.00;53.40
73121;DHT22;61307;49.628;-1.624;2023-06-14T07:37:51;23.00;53.50
73121;DHT22;61307;49.628;-1.624;2023-06-14T07:40:20;23.00;53.40
73121;DHT22;61307;49.628;-1.624;2023-06-14T07:42:48;23.00;53.40
73121;DHT22;61307;49.628;-1.624;2023-06-14T07:45:16;23.00;53.40
73121;DHT22;61307;49.628;-1.624;2023-06-14T07:47:43;23.10;53.50
73121;DHT22;61307;49.628;-1.624;2023-06-14T07:50:10;23.00;53.40
73121;DHT22;61307;49.628;-1.624;2023-06-14T07:52:40;23.10;53.50
73121;DHT22;61307;49.628;-1.624;2023-06-14T07:55:07;23.10;53.50
73121;DHT22;61307;49.628;-1.624;2023-06-14T07:57:36;23.10;53.50
73121;DHT22;61307;49.628;-1.624;2023-06-14T08:00:04;23.10;53.50
73121;DHT22;61307;49.628;-1.624;2023-06-14T08:02:32;23.10;53.50
73121;DHT22;61307;49.628;-1.624;2023-06-14T08:05:00;23.10;53.50
73121;DHT22;61307;49.628;-1.624;2023-06-14T08:07:27;23.10;53.50
73121;DHT22;61307;49.628;-1.624;2023-06-14T08:09:56;23.10;53.50
73121;DHT22;61307;49.628;-1.624;2023-06-14T08:12:26;23.10;53.50
73121;DHT22;61307;49.628;-1.624;2023-06-14T08:14:58;23.20;53.50
73121;DHT22;61307;49.628;-1.624;2023-06-14T08:17:29;23.20;53.50
73121;DHT22;61307;49.628;-1.624;2023-06-14T08:19:58;23.20;53.40
73121;DHT22;61307;49.628;-1.624;2023-06-14T08:22:26;23.20;53.40
73121;DHT22;61307;49.628;-1.624;2023-06-14T08:24:57;23.20;53.40
73121;DHT22;61307;49.628;-1.624;2023-06-14T08:27:24;23.20;53.40
73121;DHT22;61307;49.628;-1.624;2023-06-14T08:29:51;23.20;53.40
73121;DHT22;61307;49.628;-1.624;2023-06-14T08:32:19;23.20;53.30
73121;DHT22;61307;49.628;-1.624;2023-06-14T08:34:47;23.20;53.50
73121;DHT22;61307;49.628;-1.624;2023-06-14T08:37:14;23.20;53.50
73121;DHT22;61307;49.628;-1.624;2023-06-14T08:39:41;23.20;53.40
73121;DHT22;61307;49.628;-1.624;2023-06-14T08:42:09;23.30;53.50
73121;DHT22;61307;49.628;-1.624;2023-06-14T08:44:37;23.30;53.40
73121;DHT22;61307;49.628;-1.624;2023-06-14T08:47:06;23.30;53.90
73121;DHT22;61307;49.628;-1.624;2023-06-14T08:49:36;23.30;53.50
73121;DHT22;61307;49.628;-1.624;2023-06-14T08:52:05;23.30;53.40
73121;DHT22;61307;49.628;-1.624;2023-06-14T08:54:36;23.30;53.30
73121;DHT22;61307;49.628;-1.624;2023-06-14T08:57:10;23.30;53.30
73121;DHT22;61307;49.628;-1.624;2023-06-14T08:59:39;23.30;53.10
73121;DHT22;61307;49.628;-1.624;2023-06-14T09:02:12;23.30;53.10
73121;DHT22;61307;49.628;-1.624;2023-06-14T09:04:42;23.30;53.20
73121;DHT22;61307;49.628;-1.624;2023-06-14T09:07:10;23.30;53.10
73121;DHT22;61307;49.628;-1.624;2023-06-14T09:09:39;23.30;53.10
73121;DHT22;61307;49.628;-1.624;2023-06-14T09:12:08;23.30;53.10
73121;DHT22;61307;49.628;-1.624;2023-06-14T09:14:38;23.30;53.80
73121;DHT22;61307;49.628;-1.624;2023-06-14T09:17:08;23.30;53.20
73121;DHT22;61307;49.628;-1.624;2023-06-14T09:19:35;23.30;53.10
73121;DHT22;61307;49.628;-1.624;2023-06-14T09:22:05;23.30;53.10
73121;DHT22;61307;49.628;-1.624;2023-06-14T09:24:32;23.30;53.20
73121;DHT22;61307;49.628;-1.624;2023-06-14T09:26:59;23.30;53.20
73121;DHT22;61307;49.628;-1.624;2023-06-14T09:29:26;23.30;53.20
73121;DHT22;61307;49.628;-1.624;2023-06-14T09:31:54;23.30;53.10
73121;DHT22;61307;49.628;-1.624;2023-06-14T09:34:21;23.30;52.90
73121;DHT22;61307;49.628;-1.624;2023-06-14T09:36:50;23.30;52.80
73121;DHT22;61307;49.628;-1.624;2023-06-14T09:39:19;23.30;53.00
73121;DHT22;61307;49.628;-1.624;2023-06-14T09:41:47;23.30;53.00
73121;DHT22;61307;49.628;-1.624;2023-06-14T09:44:14;23.30;53.00
73121;DHT22;61307;49.628;-1.624;2023-06-14T09:46:41;23.30;53.10
73121;DHT22;61307;49.628;-1.624;2023-06-14T09:49:08;23.40;53.00
73121;DHT22;61307;49.628;-1.624;2023-06-14T09:51:42;23.40;53.10
73121;DHT22;61307;49.628;-1.624;2023-06-14T09:54:14;23.40;53.10
73121;DHT22;61307;49.628;-1.624;2023-06-14T09:56:45;23.40;53.20
73121;DHT22;61307;49.628;-1.624;2023-06-14T09:59:14;23.40;53.10
73121;DHT22;61307;49.628;-1.624;2023-06-14T10:01:44;23.40;53.10
73121;DHT22;61307;49.628;-1.624;2023-06-14T10:04:13;23.40;53.20
73121;DHT22;61307;49.628;-1.624;2023-06-14T10:06:45;23.40;53.10
73121;DHT22;61307;49.628;-1.624;2023-06-14T10:09:12;23.40;52.90
73121;DHT22;61307;49.628;-1.624;2023-06-14T10:11:40;23.40;52.90
73121;DHT22;61307;49.628;-1.624;2023-06-14T10:14:12;23.30;52.70
73121;DHT22;61307;49.628;-1.624;2023-06-14T10:16:45;23.30;52.70
73121;DHT22;61307;49.628;-1.624;2023-06-14T10:19:18;23.30;52.60
73121;DHT22;61307;49.628;-1.624;2023-06-14T10:21:51;23.30;52.60
73121;DHT22;61307;49.628;-1.624;2023-06-14T10:24:33;23.30;52.50
73121;DHT22;61307;49.628;-1.624;2023-06-14T10:27:02;23.30;52.50
73121;DHT22;61307;49.628;-1.624;2023-06-14T10:29:31;23.30;52.60
73121;DHT22;61307;49.628;-1.624;2023-06-14T10:31:59;23.30;52.50
73121;DHT22;61307;49.628;-1.624;2023-06-14T10:34:28;23.30;52.50
73121;DHT22;61307;49.628;-1.624;2023-06-14T10:37:03;23.30;52.50
73121;DHT22;61307;49.628;-1.624;2023-06-14T10:39:31;23.30;52.40
73121;DHT22;61307;49.628;-1.624;2023-06-14T10:42:01;23.20;52.30
73121;DHT22;61307;49.628;-1.624;2023-06-14T10:44:51;23.30;52.50
73121;DHT22;61307;49.628;-1.624;2023-06-14T10:47:28;23.30;52.40
73121;DHT22;61307;49.628;-1.624;2023-06-14T10:49:57;23.20;52.40
73121;DHT22;61307;49.628;-1.624;2023-06-14T10:52:26;23.20;52.40
73121;DHT22;61307;49.628;-1.624;2023-06-14T10:55:03;23.20;52.40
73121;DHT22;61307;49.628;-1.624;2023-06-14T10:57:32;23.20;52.40
73121;DHT22;61307;49.628;-1.624;2023-06-14T11:00:02;23.20;52.30
73121;DHT22;61307;49.628;-1.624;2023-06-14T11:05:52;23.20;52.30
73121;DHT22;61307;49.628;-1.624;2023-06-14T11:08:47;23.20;52.40
73121;DHT22;61307;49.628;-1.624;2023-06-14T11:11:18;23.20;52.40
73121;DHT22;61307;49.628;-1.624;2023-06-14T11:13:48;23.20;52.40
73121;DHT22;61307;49.628;-1.624;2023-06-14T11:16:17;23.20;52.50
73121;DHT22;61307;49.628;-1.624;2023-06-14T11:18:45;23.20;52.50
73121;DHT22;61307;49.628;-1.624;2023-06-14T11:21:15;23.10;52.40
73121;DHT22;61307;49.628;-1.624;2023-06-14T11:23:49;23.20;52.40
73121;DHT22;61307;49.628;-1.624;2023-06-14T11:26:16;23.20;52.60
73121;DHT22;61307;49.628;-1.624;2023-06-14T11:28:55;23.20;52.70
73121;DHT22;61307;49.628;-1.624;2023-06-14T11:31:24;23.20;52.70
73121;DHT22;61307;49.628;-1.624;2023-06-14T11:33:54;23.20;52.70
73121;DHT22;61307;49.628;-1.624;2023-06-14T11:36:21;23.10;52.60
73121;DHT22;61307;49.628;-1.624;2023-06-14T11:38:48;23.20;52.80
73121;DHT22;61307;49.628;-1.624;2023-06-14T11:41:15;23.20;52.90
73121;DHT22;61307;49.628;-1.624;2023-06-14T11:43:42;23.20;53.20
73121;DHT22;61307;49.628;-1.624;2023-06-14T11:46:13;23.30;53.30
73121;DHT22;61307;49.628;-1.624;2023-06-14T11:48:43;23.30;53.40
73121;DHT22;61307;49.628;-1.624;2023-06-14T11:51:10;23.30;53.50
73121;DHT22;61307;49.628;-1.624;2023-06-14T11:53:38;23.30;53.60
73121;DHT22;61307;49.628;-1.624;2023-06-14T11:56:06;23.30;53.70
73121;DHT22;61307;49.628;-1.624;2023-06-14T11:58:33;23.30;53.70
73121;DHT22;61307;49.628;-1.624;2023-06-14T12:01:00;23.40;53.70
73121;DHT22;61307;49.628;-1.624;2023-06-14T12:03:28;23.40;53.80
73121;DHT22;61307;49.628;-1.624;2023-06-14T12:06:08;23.40;53.70
73121;DHT22;61307;49.628;-1.624;2023-06-14T12:12:03;23.40;54.00
73121;DHT22;61307;49.628;-1.624;2023-06-14T12:14:30;23.40;54.70
73121;DHT22;61307;49.628;-1.624;2023-06-14T12:17:04;23.40;54.10
73121;DHT22;61307;49.628;-1.624;2023-06-14T12:19:32;23.40;54.10
73121;DHT22;61307;49.628;-1.624;2023-06-14T12:22:09;23.40;54.10
73121;DHT22;61307;49.628;-1.624;2023-06-14T12:24:36;23.40;54.10
73121;DHT22;61307;49.628;-1.624;2023-06-14T12:27:04;23.50;54.20
73121;DHT22;61307;49.628;-1.624;2023-06-14T12:29:31;23.50;54.30
73121;DHT22;61307;49.628;-1.624;2023-06-14T12:31:59;23.40;54.20
73121;DHT22;61307;49.628;-1.624;2023-06-14T12:34:30;23.50;54.30
73121;DHT22;61307;49.628;-1.624;2023-06-14T12:36:57;23.50;54.30
73121;DHT22;61307;49.628;-1.624;2023-06-14T12:39:26;23.50;54.30
73121;DHT22;61307;49.628;-1.624;2023-06-14T12:41:55;23.50;54.40
73121;DHT22;61307;49.628;-1.624;2023-06-14T12:44:22;23.50;54.50
73121;DHT22;61307;49.628;-1.624;2023-06-14T12:46:49;23.50;54.50
73121;DHT22;61307;49.628;-1.624;2023-06-14T12:49:19;23.50;54.50
73121;DHT22;61307;49.628;-1.624;2023-06-14T12:51:46;23.60;54.70
73121;DHT22;61307;49.628;-1.624;2023-06-14T12:54:13;23.60;54.70
73121;DHT22;61307;49.628;-1.624;2023-06-14T12:56:43;23.60;54.70
73121;DHT22;61307;49.628;-1.624;2023-06-14T12:59:10;23.60;54.70
73121;DHT22;61307;49.628;-1.624;2023-06-14T13:01:38;23.60;55.30
73121;DHT22;61307;49.628;-1.624;2023-06-14T13:04:08;23.60;54.70
73121;DHT22;61307;49.628;-1.624;2023-06-14T13:06:35;23.60;54.80
73121;DHT22;61307;49.628;-1.624;2023-06-14T13:09:03;23.60;54.80
73121;DHT22;61307;49.628;-1.624;2023-06-14T13:11:30;23.60;54.80
73121;DHT22;61307;49.628;-1.624;2023-06-14T13:13:59;23.60;54.80
73121;DHT22;61307;49.628;-1.624;2023-06-14T13:16:26;23.60;54.70
73121;DHT22;61307;49.628;-1.624;2023-06-14T13:18:53;23.60;54.70
73121;DHT22;61307;49.628;-1.624;2023-06-14T13:21:21;23.60;54.70
73121;DHT22;61307;49.628;-1.624;2023-06-14T13:23:48;23.60;54.80
73121;DHT22;61307;49.628;-1.624;2023-06-14T13:26:16;23.60;54.70
73121;DHT22;61307;49.628;-1.624;2023-06-14T13:28:44;23.50;54.50
73121;DHT22;61307;49.628;-1.624;2023-06-14T13:31:12;23.60;54.50
73121;DHT22;61307;49.628;-1.624;2023-06-14T13:33:39;23.60;54.40
73121;DHT22;61307;49.628;-1.624;2023-06-14T13:36:06;23.60;54.50
73121;DHT22;61307;49.628;-1.624;2023-06-14T13:38:34;23.50;54.60
73121;DHT22;61307;49.628;-1.624;2023-06-14T13:41:01;23.60;54.70
73121;DHT22;61307;49.628;-1.624;2023-06-14T13:43:28;23.60;54.70
73121;DHT22;61307;49.628;-1.624;2023-06-14T13:45:55;23.60;54.70
73121;DHT22;61307;49.628;-1.624;2023-06-14T13:48:24;23.60;54.50
73121;DHT22;61307;49.628;-1.624;2023-06-14T13:50:51;23.50;54.40
73121;DHT22;61307;49.628;-1.624;2023-06-14T13:53:20;23.60;54.50
73121;DHT22;61307;49.628;-1.624;2023-06-14T13:55:50;23.60;54.50
73121;DHT22;61307;49.628;-1.624;2023-06-14T13:58:20;23.50;54.40
73121;DHT22;61307;49.628;-1.624;2023-06-14T14:00:51;23.60;54.40
73121;DHT22;61307;49.628;-1.624;2023-06-14T14:03:19;23.60;54.40
73121;DHT22;61307;49.628;-1.624;2023-06-14T14:05:48;23.50;54.30
73121;DHT22;61307;49.628;-1.624;2023-06-14T14:08:15;23.60;54.30
73121;DHT22;61307;49.628;-1.624;2023-06-14T14:10:42;23.50;54.30
73121;DHT22;61307;49.628;-1.624;2023-06-14T14:13:09;23.50;54.20
73121;DHT22;61307;49.628;-1.624;2023-06-14T14:15:38;23.50;54.20
73121;DHT22;61307;49.628;-1.624;2023-06-14T14:18:05;23.50;54.20
73121;DHT22;61307;49.628;-1.624;2023-06-14T14:20:32;23.50;54.20
73121;DHT22;61307;49.628;-1.624;2023-06-14T14:23:01;23.50;54.30
73121;DHT22;61307;49.628;-1.624;2023-06-14T14:25:28;23.50;54.30
73121;DHT22;61307;49.628;-1.624;2023-06-14T14:27:55;23.50;54.20
73121;DHT22;61307;49.628;-1.624;2023-06-14T14:30:23;23.50;54.20
73121;DHT22;61307;49.628;-1.624;2023-06-14T14:32:50;23.50;54.30
73121;DHT22;61307;49.628;-1.624;2023-06-14T14:35:18;23.50;54.50
73121;DHT22;61307;49.628;-1.624;2023-06-14T14:37:45;23.60;54.60
73121;DHT22;61307;49.628;-1.624;2023-06-14T14:40:14;23.60;54.80
73121;DHT22;61307;49.628;-1.624;2023-06-14T14:42:41;23.60;54.80
73121;DHT22;61307;49.628;-1.624;2023-06-14T14:45:09;23.60;54.90
73121;DHT22;61307;49.628;-1.624;2023-06-14T14:47:36;23.60;54.90
73121;DHT22;61307;49.628;-1.624;2023-06-14T14:50:04;23.60;54.80
73121;DHT22;61307;49.628;-1.624;2023-06-14T14:52:34;23.60;54.80
73121;DHT22;61307;49.628;-1.624;2023-06-14T14:55:01;23.60;54.80
73121;DHT22;61307;49.628;-1.624;2023-06-14T14:57:29;23.60;54.80
73121;DHT22;61307;49.628;-1.624;2023-06-14T14:59:57;23.60;54.80
73121;DHT22;61307;49.628;-1.624;2023-06-14T15:02:24;23.60;54.80
73121;DHT22;61307;49.628;-1.624;2023-06-14T15:04:51;23.60;54.80
73121;DHT22;61307;49.628;-1.624;2023-06-14T15:07:19;23.60;54.80
73121;DHT22;61307;49.628;-1.624;2023-06-14T15:09:46;23.60;54.80
73121;DHT22;61307;49.628;-1.624;2023-06-14T15:12:16;23.60;54.80
73121;DHT22;61307;49.628;-1.624;2023-06-14T15:14:46;23.60;54.80
73121;DHT22;61307;49.628;-1.624;2023-06-14T15:17:14;23.60;54.80
73121;DHT22;61307;49.628;-1.624;2023-06-14T15:19:41;23.70;54.90
73121;DHT22;61307;49.628;-1.624;2023-06-14T15:22:08;23.70;54.90
73121;DHT22;61307;49.628;-1.624;2023-06-14T15:24:35;23.70;54.90
73121;DHT22;61307;49.628;-1.624;2023-06-14T15:27:02;23.70;55.00
73121;DHT22;61307;49.628;-1.624;2023-06-14T15:29:30;23.70;55.00